Time;durP1;ratioP1;P1;durP2;ratioP2;P2;SDS_P1;SDS_P2;PMS_P1;PMS_P2;Temp;Humidity;BMP_temperature;BMP_pressure;BME280_temperature;BME280_humidity;BME280_pressure;Samples;Min_cycle;Max_cycle;Signal;HPM_P1;HPM_P2
2024/01/16 00:01:16;;;;;;;10.48;6.65;;;1.10;99.90;;;;;;5058000;28;20253;-74
2024/01/16 00:04:01;;;;;;;14.23;7.32;;;1.10;99.90;;;;;;5055901;28;20433;-72
2024/01/16 00:06:47;;;;;;;12.10;6.80;;;1.00;99.90;;;;;;5050101;28;20925;-73
2024/01/16 00:09:34;;;;;;;7.20;5.53;;;0.80;99.90;;;;;;5061151;28;20585;-73
2024/01/16 00:12:20;;;;;;;12.30;6.90;;;0.80;99.90;;;;;;5067493;28;20297;-74
2024/01/16 00:15:07;;;;;;;12.05;6.03;;;0.70;99.90;;;;;;5050477;28;20707;-73
2024/01/16 00:17:54;;;;;;;6.68;5.60;;;0.60;99.90;;;;;;5055333;28;20224;-74
2024/01/16 00:20:40;;;;;;;12.93;6.90;;;0.60;99.90;;;;;;5052465;28;20618;-73
2024/01/16 00:23:25;;;;;;;9.38;7.15;;;0.50;99.90;;;;;;5060417;28;20331;-73
2024/01/16 00:26:21;;;;;;;7.60;5.88;;;0.50;99.90;;;;;;5048848;28;20233;-73
2024/01/16 00:29:06;;;;;;;19.98;7.40;;;0.50;99.90;;;;;;5055910;28;20200;-73
2024/01/16 00:31:52;;;;;;;9.75;7.35;;;0.60;99.90;;;;;;5051072;28;20210;-73
2024/01/16 00:34:39;;;;;;;16.38;7.78;;;0.60;99.90;;;;;;5051427;28;20221;-72
2024/01/16 00:37:24;;;;;;;13.73;7.20;;;0.60;99.90;;;;;;5062211;28;20223;-73
2024/01/16 00:40:11;;;;;;;7.63;6.55;;;0.60;99.90;;;;;;5054163;28;20345;-73
2024/01/16 00:42:56;;;;;;;12.52;6.45;;;0.60;99.90;;;;;;5054880;28;20403;-73
2024/01/16 00:45:42;;;;;;;11.68;6.40;;;0.60;99.90;;;;;;5051674;28;20195;-73
2024/01/16 00:48:28;;;;;;;13.27;7.25;;;0.70;99.90;;;;;;5052467;28;20718;-73
2024/01/16 00:51:15;;;;;;;8.48;6.53;;;0.60;99.90;;;;;;5061578;28;20215;-73
2024/01/16 00:54:01;;;;;;;13.32;7.50;;;0.60;99.90;;;;;;5062462;28;20686;-73
2024/01/16 00:56:46;;;;;;;15.60;7.65;;;0.60;99.90;;;;;;5063336;28;20223;-73
2024/01/16 00:59:32;;;;;;;16.55;7.90;;;0.50;99.90;;;;;;5066961;28;20196;-73
2024/01/16 01:02:18;;;;;;;12.98;7.22;;;0.50;99.90;;;;;;5054250;28;20267;-73
2024/01/16 01:05:03;;;;;;;13.23;7.18;;;0.50;99.90;;;;;;5042283;28;20279;-73
2024/01/16 01:07:50;;;;;;;8.68;7.07;;;0.60;99.90;;;;;;5053824;28;20221;-74
2024/01/16 01:10:36;;;;;;;10.52;6.85;;;0.70;99.90;;;;;;5049282;28;20204;-73
2024/01/16 01:13:22;;;;;;;9.35;6.93;;;0.80;99.90;;;;;;5049554;28;20312;-74
2024/01/16 01:16:08;;;;;;;11.38;7.88;;;0.80;99.90;;;;;;5048903;28;20232;-73
2024/01/16 01:18:54;;;;;;;8.90;7.35;;;0.80;99.90;;;;;;5045860;28;20692;-73
2024/01/16 01:21:40;;;;;;;14.70;8.70;;;0.90;99.90;;;;;;5050868;28;20213;-74
2024/01/16 01:24:27;;;;;;;13.30;7.80;;;1.00;99.90;;;;;;5042853;28;20197;-73
2024/01/16 01:27:12;;;;;;;12.18;7.90;;;1.00;99.90;;;;;;5050111;28;20233;-73
2024/01/16 01:29:59;;;;;;;13.05;7.82;;;0.90;99.90;;;;;;5046591;28;20704;-74
2024/01/16 01:32:44;;;;;;;11.70;8.38;;;0.90;99.90;;;;;;5061065;28;20204;-73
2024/01/16 01:35:30;;;;;;;12.93;7.85;;;0.90;99.90;;;;;;5055363;28;20310;-74
2024/01/16 01:38:16;;;;;;;14.50;7.72;;;0.90;99.90;;;;;;5056929;28;20205;-73
2024/01/16 01:41:03;;;;;;;13.00;7.50;;;1.00;99.90;;;;;;5062298;28;20710;-73
2024/01/16 01:43:49;;;;;;;11.75;8.60;;;1.00;99.90;;;;;;5057787;28;20294;-73
2024/01/16 01:46:36;;;;;;;9.52;6.50;;;1.00;99.90;;;;;;5055585;28;20296;-74
2024/01/16 01:49:23;;;;;;;12.38;8.38;;;1.00;99.90;;;;;;5058468;28;20663;-75
2024/01/16 01:52:09;;;;;;;9.88;7.20;;;1.00;99.90;;;;;;5052439;28;20205;-73
2024/01/16 01:54:55;;;;;;;10.65;8.25;;;1.00;99.90;;;;;;5046842;28;20221;-74
2024/01/16 01:57:43;;;;;;;17.83;8.98;;;1.00;99.90;;;;;;5050801;28;20338;-73
2024/01/16 02:00:29;;;;;;;11.30;7.32;;;1.00;99.90;;;;;;5062131;28;20208;-74
2024/01/16 02:03:15;;;;;;;11.75;7.40;;;0.90;99.90;;;;;;5051684;28;20220;-73
2024/01/16 02:06:01;;;;;;;11.27;7.63;;;0.90;99.90;;;;;;5052781;28;20213;-74
2024/01/16 02:08:47;;;;;;;12.30;8.35;;;0.80;99.90;;;;;;5042091;28;20308;-73
2024/01/16 02:11:32;;;;;;;15.15;8.45;;;0.90;99.90;;;;;;5054483;28;20590;-73
2024/01/16 02:14:19;;;;;;;15.73;7.97;;;0.90;99.90;;;;;;5049702;28;20209;-73
2024/01/16 02:17:05;;;;;;;12.90;8.05;;;0.90;99.90;;;;;;5048036;28;20224;-74
2024/01/16 02:19:51;;;;;;;13.43;7.78;;;0.90;99.90;;;;;;5058215;28;20212;-74
2024/01/16 02:22:38;;;;;;;14.95;8.80;;;0.90;99.90;;;;;;5050871;28;20240;-73
2024/01/16 02:25:26;;;;;;;13.32;8.13;;;0.90;99.90;;;;;;5053657;28;20327;-74
2024/01/16 02:28:11;;;;;;;9.77;6.70;;;0.90;99.90;;;;;;5049214;28;20625;-74
2024/01/16 02:30:57;;;;;;;10.90;7.53;;;1.00;99.90;;;;;;5051219;28;20205;-73
2024/01/16 02:33:43;;;;;;;12.68;8.40;;;1.10;99.90;;;;;;5052626;28;20209;-74
2024/01/16 02:36:29;;;;;;;13.38;8.38;;;1.10;99.90;;;;;;5050176;28;20760;-73
2024/01/16 02:39:14;;;;;;;13.43;7.30;;;1.20;99.90;;;;;;5053755;28;20212;-73
2024/01/16 02:42:01;;;;;;;11.43;8.02;;;1.10;99.90;;;;;;5049779;28;20454;-74
2024/01/16 02:44:47;;;;;;;12.30;8.23;;;1.10;99.90;;;;;;5053946;28;20247;-73
2024/01/16 02:47:32;;;;;;;13.45;8.25;;;1.10;99.90;;;;;;5059859;28;20786;-73
2024/01/16 02:50:20;;;;;;;12.27;7.18;;;1.00;99.90;;;;;;5057256;28;20204;-74
2024/01/16 02:53:05;;;;;;;13.15;8.10;;;1.10;99.90;;;;;;5059246;28;20204;-73
2024/01/16 02:55:51;;;;;;;10.63;8.02;;;1.00;99.90;;;;;;5045992;28;20248;-73
2024/01/16 02:58:38;;;;;;;13.45;8.23;;;1.00;99.90;;;;;;5054515;28;20334;-73
2024/01/16 03:01:24;;;;;;;19.25;8.50;;;1.00;99.90;;;;;;5047354;28;20677;-74
2024/01/16 03:04:10;;;;;;;10.48;7.97;;;1.00;99.90;;;;;;5065221;28;20200;-73
2024/01/16 03:06:55;;;;;;;12.35;7.50;;;1.00;99.90;;;;;;5064495;28;20216;-73
2024/01/16 03:09:41;;;;;;;17.35;8.63;;;1.00;99.90;;;;;;5055450;28;20208;-73
2024/01/16 03:12:27;;;;;;;16.27;8.07;;;1.00;99.90;;;;;;5047326;28;20569;-74
2024/01/16 03:15:14;;;;;;;17.55;8.98;;;1.00;99.90;;;;;;5060782;28;20347;-74
2024/01/16 03:18:00;;;;;;;19.08;8.35;;;0.90;99.90;;;;;;5052114;28;20233;-73
2024/01/16 03:20:46;;;;;;;9.63;7.70;;;0.80;99.90;;;;;;5057057;28;20207;-73
2024/01/16 03:23:31;;;;;;;17.05;8.30;;;0.80;99.90;;;;;;5060344;28;20216;-73
2024/01/16 03:26:17;;;;;;;12.70;9.63;;;0.80;99.90;;;;;;5056953;28;20223;-73
2024/01/16 03:29:04;;;;;;;12.80;8.18;;;0.70;99.90;;;;;;5041987;28;20250;-73
2024/01/16 03:31:51;;;;;;;12.98;8.25;;;0.70;99.90;;;;;;5064254;28;20205;-74
2024/01/16 03:34:36;;;;;;;14.57;9.40;;;0.70;99.90;;;;;;5064128;28;20391;-73
2024/01/16 03:37:22;;;;;;;13.38;8.30;;;0.70;99.90;;;;;;5065159;28;20291;-73
2024/01/16 03:40:09;;;;;;;16.95;7.90;;;0.60;99.90;;;;;;5063301;28;20201;-72
2024/01/16 03:42:54;;;;;;;11.25;9.30;;;0.40;99.90;;;;;;5049058;28;20278;-73
2024/01/16 03:45:40;;;;;;;12.70;8.65;;;0.40;99.90;;;;;;5049675;28;20206;-72
2024/01/16 03:48:27;;;;;;;24.67;8.75;;;0.50;99.90;;;;;;5060843;28;20208;-74
2024/01/16 03:51:15;;;;;;;17.15;9.30;;;0.60;99.90;;;;;;5055117;28;20671;-73
2024/01/16 03:54:01;;;;;;;12.65;9.65;;;0.50;99.90;;;;;;5059952;28;20209;-73
2024/01/16 03:56:46;;;;;;;12.45;9.20;;;0.50;99.90;;;;;;5055971;28;20236;-73
2024/01/16 03:59:32;;;;;;;12.98;9.40;;;0.50;99.90;;;;;;5052488;28;20214;-73
2024/01/16 04:02:18;;;;;;;15.68;8.55;;;0.50;99.90;;;;;;5065986;28;20215;-73
2024/01/16 04:05:05;;;;;;;18.75;10.07;;;0.40;99.90;;;;;;5057686;28;20221;-74
2024/01/16 04:07:52;;;;;;;15.15;9.13;;;0.40;99.90;;;;;;5056169;28;20227;-73
2024/01/16 04:10:37;;;;;;;11.05;8.15;;;0.40;99.90;;;;;;5062960;28;20196;-73
2024/01/16 04:13:23;;;;;;;12.30;9.35;;;0.20;99.90;;;;;;5056655;28;20207;-74
2024/01/16 04:16:09;;;;;;;18.35;9.20;;;0.10;99.90;;;;;;5059238;28;20280;-73
2024/01/16 04:18:54;;;;;;;11.20;8.73;;;0.10;99.90;;;;;;5062704;28;20208;-73
2024/01/16 04:21:41;;;;;;;13.25;9.05;;;0.00;99.90;;;;;;5058926;28;20204;-74
2024/01/16 04:24:27;;;;;;;12.10;10.38;;;0.00;99.90;;;;;;5057424;28;20228;-73
2024/01/16 04:27:13;;;;;;;16.35;10.30;;;0.00;99.90;;;;;;5051871;28;20232;-73
2024/01/16 04:29:59;;;;;;;12.60;9.75;;;0.00;99.90;;;;;;5063522;28;20196;-73
2024/01/16 04:32:45;;;;;;;13.65;9.27;;;0.00;99.90;;;;;;5062209;28;20243;-73
2024/01/16 04:35:30;;;;;;;9.35;7.68;;;-0.10;99.90;;;;;;5062711;28;20221;-73
2024/01/16 04:38:17;;;;;;;16.52;9.93;;;-0.10;99.90;;;;;;5050566;28;20208;-73
2024/01/16 04:41:03;;;;;;;13.52;10.20;;;-0.10;99.90;;;;;;5065041;28;20207;-73
2024/01/16 04:43:50;;;;;;;15.90;10.15;;;0.00;99.90;;;;;;5059466;28;20574;-73
2024/01/16 04:46:35;;;;;;;13.55;9.15;;;0.10;99.90;;;;;;5053046;28;20347;-73
2024/01/16 04:49:21;;;;;;;15.82;11.13;;;-0.10;99.90;;;;;;5050645;28;20270;-74
2024/01/16 04:52:07;;;;;;;18.30;11.05;;;-0.20;99.90;;;;;;5052217;28;20201;-73
2024/01/16 04:54:54;;;;;;;14.02;10.90;;;-0.20;99.90;;;;;;5060856;28;20352;-73
2024/01/16 04:57:40;;;;;;;14.07;9.82;;;-0.30;99.90;;;;;;5056818;28;20235;-73
2024/01/16 05:00:25;;;;;;;12.35;9.80;;;-0.40;99.90;;;;;;5053256;28;20204;-73
2024/01/16 05:03:11;;;;;;;15.88;10.80;;;-0.30;99.90;;;;;;5062899;28;20428;-73
2024/01/16 05:05:56;;;;;;;12.18;9.95;;;-0.40;99.90;;;;;;5054786;28;20200;-72
2024/01/16 05:08:42;;;;;;;14.73;10.48;;;-0.40;99.90;;;;;;5059804;28;20279;-72
2024/01/16 05:11:29;;;;;;;16.05;11.43;;;-0.40;99.90;;;;;;5053338;28;20208;-72
2024/01/16 05:14:15;;;;;;;14.63;9.57;;;-0.50;99.90;;;;;;5058654;28;20301;-72
2024/01/16 05:17:00;;;;;;;16.63;10.55;;;-0.50;99.90;;;;;;5057551;28;20251;-72
2024/01/16 05:19:46;;;;;;;20.02;10.75;;;-0.40;99.90;;;;;;5065545;28;20204;-72
2024/01/16 05:22:32;;;;;;;14.57;9.98;;;-0.60;99.90;;;;;;5056013;28;20226;-72
2024/01/16 05:25:18;;;;;;;12.75;10.50;;;-0.60;99.90;;;;;;5062439;28;20203;-72
2024/01/16 05:28:06;;;;;;;16.52;10.57;;;-0.60;99.90;;;;;;5063152;22;20228;-75
2024/01/16 05:30:51;;;;;;;19.92;11.07;;;-0.80;99.90;;;;;;5063494;28;20311;-75
2024/01/16 05:33:37;;;;;;;13.27;10.38;;;-0.80;99.90;;;;;;5050882;28;20212;-75
2024/01/16 05:36:22;;;;;;;17.25;11.18;;;-1.10;99.90;;;;;;5061555;28;20748;-74
2024/01/16 05:39:08;;;;;;;14.18;10.60;;;-1.10;99.90;;;;;;5050747;28;20265;-74
2024/01/16 05:41:54;;;;;;;10.52;9.13;;;-1.10;99.90;;;;;;5059641;28;20207;-75
2024/01/16 05:44:41;;;;;;;13.27;10.48;;;-1.20;99.90;;;;;;5051347;28;20451;-75
2024/01/16 05:47:27;;;;;;;13.85;9.63;;;-1.40;99.90;;;;;;5060878;28;20282;-74
2024/01/16 05:50:16;;;;;;;10.82;8.80;;;-1.40;99.90;;;;;;5058103;28;20564;-75
2024/01/16 05:53:02;;;;;;;14.30;10.75;;;-1.50;99.90;;;;;;5057575;28;20204;-74
2024/01/16 05:55:47;;;;;;;27.95;10.85;;;-1.60;99.90;;;;;;5064290;28;20263;-74
2024/01/16 05:58:38;;;;;;;13.90;10.13;;;-1.60;99.90;;;;;;5055532;28;20266;-75
2024/01/16 06:01:25;;;;;;;16.55;9.70;;;-1.60;99.90;;;;;;5041262;28;20212;-74
2024/01/16 06:04:12;;;;;;;14.00;10.85;;;-1.70;99.90;;;;;;5049821;28;20213;-74
2024/01/16 06:06:57;;;;;;;15.40;10.20;;;-1.80;99.90;;;;;;5050836;28;20279;-74
2024/01/16 06:09:43;;;;;;;13.10;10.18;;;-2.00;99.90;;;;;;5058636;28;20227;-74
2024/01/16 06:12:29;;;;;;;21.42;10.15;;;-2.20;99.90;;;;;;5061075;28;20207;-74
2024/01/16 06:15:14;;;;;;;16.15;9.68;;;-2.10;99.90;;;;;;5060454;28;20217;-74
2024/01/16 06:18:01;;;;;;;17.35;10.57;;;-2.30;99.90;;;;;;5060196;28;20232;-74
2024/01/16 06:20:47;;;;;;;14.90;9.90;;;-2.40;99.90;;;;;;5059043;28;20213;-76
2024/01/16 06:23:33;;;;;;;18.23;11.00;;;-2.30;99.90;;;;;;5062685;28;20690;-74
2024/01/16 06:26:18;;;;;;;15.93;10.23;;;-2.40;99.90;;;;;;5061809;28;20206;-73
2024/01/16 06:29:04;;;;;;;17.20;10.82;;;-2.40;99.90;;;;;;5058654;28;20209;-76
2024/01/16 06:31:50;;;;;;;16.95;10.07;;;-2.50;99.90;;;;;;5052542;28;20209;-75
2024/01/16 06:34:37;;;;;;;19.30;11.68;;;-2.60;99.90;;;;;;5064125;28;20901;-75
2024/01/16 06:37:22;;;;;;;13.65;9.90;;;-2.40;99.90;;;;;;5054728;28;20268;-75
2024/01/16 06:40:09;;;;;;;18.08;10.57;;;-2.30;99.90;;;;;;5060768;28;20326;-76
2024/01/16 06:42:54;;;;;;;23.13;11.30;;;-2.30;99.90;;;;;;5066385;28;20318;-76
2024/01/16 06:45:40;;;;;;;12.85;10.15;;;-2.10;99.90;;;;;;5062250;28;20208;-76
2024/01/16 06:48:27;;;;;;;19.48;11.10;;;-2.30;99.90;;;;;;5058240;28;20744;-76
2024/01/16 06:51:14;;;;;;;15.60;9.55;;;-2.40;99.90;;;;;;5070126;28;20257;-76
2024/01/16 06:53:59;;;;;;;13.55;10.45;;;-2.30;99.90;;;;;;5057795;28;20711;-76
2024/01/16 06:56:46;;;;;;;15.70;11.05;;;-2.50;99.90;;;;;;5065239;28;20235;-75
2024/01/16 06:59:31;;;;;;;20.15;10.13;;;-2.50;99.90;;;;;;5066073;28;20691;-75
2024/01/16 07:02:17;;;;;;;16.10;10.90;;;-2.60;99.90;;;;;;5056628;28;20343;-75
2024/01/16 07:05:03;;;;;;;13.38;10.27;;;-2.60;99.90;;;;;;5067068;28;20693;-74
2024/01/16 07:07:51;;;;;;;12.98;10.82;;;-2.50;99.90;;;;;;5060436;28;20224;-74
2024/01/16 07:10:36;;;;;;;13.48;10.68;;;-2.40;99.90;;;;;;5051122;28;20686;-75
2024/01/16 07:13:22;;;;;;;15.13;11.38;;;-2.30;99.90;;;;;;5059738;28;20838;-74
2024/01/16 07:16:10;;;;;;;19.05;11.95;;;-2.20;99.90;;;;;;5067226;28;20235;-74
2024/01/16 07:18:56;;;;;;;15.90;11.05;;;-2.10;99.90;;;;;;5068336;28;20249;-74
2024/01/16 07:21:41;;;;;;;14.52;11.48;;;-2.20;99.90;;;;;;5062580;28;20639;-75
2024/01/16 07:24:28;;;;;;;16.63;10.60;;;-2.10;99.90;;;;;;5070241;28;20286;-74
2024/01/16 07:27:13;;;;;;;14.32;10.45;;;-2.10;99.90;;;;;;5058427;28;20230;-75
2024/01/16 07:29:59;;;;;;;15.70;10.40;;;-2.10;99.90;;;;;;5066598;28;20208;-75
2024/01/16 07:32:44;;;;;;;15.52;10.90;;;-2.00;99.90;;;;;;5069466;28;20334;-75
2024/01/16 07:35:30;;;;;;;16.10;10.60;;;-1.90;99.90;;;;;;5068772;28;20204;-74
2024/01/16 07:38:16;;;;;;;16.13;10.40;;;-2.00;99.90;;;;;;5068867;28;20246;-75
2024/01/16 07:41:02;;;;;;;16.60;11.52;;;-2.20;99.90;;;;;;5068118;28;20282;-74
2024/01/16 07:43:48;;;;;;;13.45;11.38;;;-2.20;99.90;;;;;;5050069;28;20224;-74
2024/01/16 07:46:34;;;;;;;15.57;11.70;;;-2.00;99.90;;;;;;5067293;28;20371;-75
2024/01/16 07:49:20;;;;;;;15.43;12.13;;;-1.90;99.90;;;;;;5058435;28;20350;-75
2024/01/16 07:52:06;;;;;;;16.95;13.48;;;-1.80;99.90;;;;;;5067216;28;20253;-74
2024/01/16 07:54:51;;;;;;;17.55;15.60;;;-1.90;99.90;;;;;;5061466;28;20206;-75
2024/01/16 07:57:39;;;;;;;18.05;14.70;;;-2.00;99.90;;;;;;5062290;28;20757;-74
2024/01/16 08:00:24;;;;;;;17.17;12.50;;;-2.00;99.90;;;;;;5057711;28;20214;-75
2024/01/16 08:03:11;;;;;;;15.82;13.00;;;-1.90;99.90;;;;;;5067397;28;20204;-75
2024/01/16 08:05:57;;;;;;;16.98;11.82;;;-1.70;99.90;;;;;;5066358;28;20258;-75
2024/01/16 08:08:42;;;;;;;19.52;13.75;;;-1.70;99.90;;;;;;5067845;28;20224;-75
2024/01/16 08:11:29;;;;;;;20.15;14.25;;;-1.70;99.90;;;;;;5069081;28;20694;-75
2024/01/16 08:14:16;;;;;;;21.90;13.82;;;-1.60;99.90;;;;;;5062713;28;20294;-75
2024/01/16 08:17:01;;;;;;;21.05;14.35;;;-1.60;99.90;;;;;;5059317;28;20754;-75
2024/01/16 08:19:47;;;;;;;22.35;14.85;;;-1.60;99.90;;;;;;5064444;28;20212;-74
2024/01/16 08:22:33;;;;;;;20.67;14.07;;;-1.50;99.90;;;;;;5060718;28;20200;-75
2024/01/16 08:25:19;;;;;;;30.75;15.23;;;-1.30;99.90;;;;;;5070257;28;20233;-75
2024/01/16 08:28:05;;;;;;;18.75;13.68;;;-1.30;99.90;;;;;;5060468;28;20295;-75
2024/01/16 08:30:51;;;;;;;20.83;13.90;;;-1.20;99.90;;;;;;5066954;28;20235;-75
2024/01/16 08:33:37;;;;;;;20.85;15.55;;;-1.10;99.90;;;;;;5056958;28;20745;-75
2024/01/16 08:36:22;;;;;;;23.48;16.08;;;-1.00;99.90;;;;;;5064099;28;20327;-75
2024/01/16 08:39:08;;;;;;;26.25;18.65;;;-0.90;99.90;;;;;;5066029;28;20280;-75
2024/01/16 08:41:54;;;;;;;26.27;18.00;;;-0.80;99.90;;;;;;5068028;28;20207;-74
2024/01/16 08:44:40;;;;;;;28.48;18.13;;;-0.80;99.90;;;;;;5071880;28;20298;-74
2024/01/16 08:47:27;;;;;;;24.92;17.90;;;-0.70;99.90;;;;;;5070072;28;20216;-75
2024/01/16 08:50:12;;;;;;;22.13;17.35;;;-0.80;99.90;;;;;;5061519;28;20525;-74
2024/01/16 08:52:58;;;;;;;25.83;18.13;;;-0.80;99.90;;;;;;5046353;28;20627;-75
2024/01/16 08:55:43;;;;;;;26.77;18.38;;;-0.70;99.90;;;;;;5064502;28;20212;-75
2024/01/16 08:58:29;;;;;;;22.40;17.73;;;-0.80;99.90;;;;;;5053384;28;20369;-76
2024/01/16 09:01:15;;;;;;;31.67;16.67;;;-0.70;99.90;;;;;;5069518;28;20320;-75
2024/01/16 09:04:02;;;;;;;23.23;16.52;;;-0.50;99.90;;;;;;5070510;28;20208;-74
2024/01/16 09:06:47;;;;;;;29.55;16.80;;;-0.40;99.90;;;;;;5068946;28;20610;-74
2024/01/16 09:09:33;;;;;;;24.63;17.38;;;-0.20;99.90;;;;;;5058605;28;20207;-75
2024/01/16 09:12:19;;;;;;;24.15;18.20;;;-0.20;99.90;;;;;;5058412;28;20228;-75
2024/01/16 09:15:05;;;;;;;29.50;20.25;;;-0.10;99.90;;;;;;5061489;28;20211;-74
2024/01/16 09:17:50;;;;;;;30.88;21.95;;;0.00;99.90;;;;;;5070069;28;20224;-75
2024/01/16 09:20:38;;;;;;;29.98;18.13;;;0.10;99.90;;;;;;5058466;28;20200;-75
2024/01/16 09:23:23;;;;;;;26.75;19.00;;;0.10;99.90;;;;;;5064188;28;20316;-75
2024/01/16 09:26:09;;;;;;;27.80;19.80;;;0.20;99.90;;;;;;5057325;28;20208;-75
2024/01/16 09:28:55;;;;;;;37.17;22.88;;;0.20;99.90;;;;;;5062810;28;20694;-75
2024/01/16 09:31:40;;;;;;;35.60;25.83;;;0.30;99.90;;;;;;5069599;28;20208;-75
2024/01/16 09:34:26;;;;;;;36.75;22.05;;;0.30;99.90;;;;;;5070427;28;20223;-75
2024/01/16 09:37:14;;;;;;;31.90;22.75;;;0.30;99.90;;;;;;5069053;28;20306;-75
2024/01/16 09:40:00;;;;;;;30.38;22.25;;;0.30;99.90;;;;;;5067124;28;20576;-75
2024/01/16 09:42:45;;;;;;;33.45;23.70;;;0.00;99.90;;;;;;5063474;28;20200;-75
2024/01/16 09:45:32;;;;;;;30.05;21.65;;;0.00;99.90;;;;;;5057856;28;20211;-75
2024/01/16 09:48:18;;;;;;;33.55;25.23;;;0.10;99.90;;;;;;5070631;28;20239;-75
2024/01/16 09:51:04;;;;;;;29.92;22.75;;;0.10;99.90;;;;;;5067564;28;20254;-74
2024/01/16 09:53:52;;;;;;;32.78;22.95;;;0.20;99.90;;;;;;5070218;28;20254;-75
2024/01/16 09:56:43;;;;;;;31.73;22.20;;;0.30;99.90;;;;;;5069976;28;20204;-74
2024/01/16 09:59:31;;;;;;;33.90;20.65;;;0.50;99.90;;;;;;5064082;28;20774;-75
2024/01/16 10:02:20;;;;;;;29.15;21.83;;;0.60;99.90;;;;;;5070051;28;20298;-74
2024/01/16 10:05:08;;;;;;;22.85;15.93;;;0.60;99.90;;;;;;5069837;28;20255;-74
2024/01/16 10:07:54;;;;;;;36.13;22.42;;;0.70;99.90;;;;;;5061993;28;20219;-75
2024/01/16 10:10:41;;;;;;;38.13;19.75;;;0.80;99.90;;;;;;5065019;28;20207;-75
2024/01/16 10:13:27;;;;;;;22.50;15.00;;;0.90;99.90;;;;;;5070636;28;20358;-75
2024/01/16 10:16:12;;;;;;;25.08;10.02;;;1.00;99.90;;;;;;5068819;28;20282;-74
2024/01/16 10:19:05;;;;;;;20.42;11.80;;;0.90;99.90;;;;;;5066304;28;20223;-74
2024/01/16 10:21:52;;;;;;;18.02;11.10;;;0.90;99.90;;;;;;5051281;28;20213;-74
2024/01/16 10:24:38;;;;;;;13.85;9.35;;;0.90;99.90;;;;;;5036792;28;20208;-74
2024/01/16 10:27:30;;;;;;;14.98;8.98;;;1.10;99.90;;;;;;5050777;28;20240;-74
2024/01/16 10:30:16;;;;;;;16.10;9.80;;;1.20;99.90;;;;;;5053962;28;20311;-74
2024/01/16 10:33:16;;;;;;;17.05;10.18;;;1.30;99.90;;;;;;5036615;28;20316;-75
2024/01/16 10:36:12;;;;;;;18.90;8.65;;;1.40;99.90;;;;;;5041105;28;20205;-74
2024/01/16 10:39:04;;;;;;;16.83;8.75;;;1.60;99.90;;;;;;5067140;28;20339;-74
2024/01/16 10:41:59;;;;;;;14.95;8.90;;;1.80;99.90;;;;;;5031849;28;20252;-74
2024/01/16 10:44:55;;;;;;;14.52;9.80;;;1.90;99.90;;;;;;5039901;28;20241;-74
2024/01/16 10:47:42;;;;;;;16.70;9.15;;;2.00;99.90;;;;;;5045721;28;20224;-74
2024/01/16 10:50:28;;;;;;;16.02;8.80;;;2.10;99.90;;;;;;5041335;28;20671;-75
2024/01/16 10:53:17;;;;;;;12.88;8.90;;;2.20;99.90;;;;;;5058023;28;20196;-74
2024/01/16 10:56:04;;;;;;;20.70;8.85;;;2.40;99.90;;;;;;5033318;28;20614;-73
2024/01/16 10:58:58;;;;;;;15.05;8.32;;;2.50;99.90;;;;;;5054574;28;20216;-74
2024/01/16 11:01:51;;;;;;;17.10;8.27;;;2.60;99.90;;;;;;5048414;28;20761;-74
2024/01/16 11:04:37;;;;;;;15.65;8.43;;;2.50;99.90;;;;;;5050474;28;20201;-74
2024/01/16 11:07:26;;;;;;;16.92;8.80;;;2.50;99.90;;;;;;5054459;28;20366;-73
2024/01/16 11:10:12;;;;;;;15.27;9.13;;;2.60;99.90;;;;;;5040974;28;20197;-75
2024/01/16 11:13:01;;;;;;;16.65;8.52;;;2.60;99.90;;;;;;5049812;28;20221;-75
2024/01/16 11:15:49;;;;;;;12.65;8.20;;;2.50;99.90;;;;;;5064208;28;20726;-75
2024/01/16 11:18:36;;;;;;;14.50;8.80;;;2.40;99.90;;;;;;5045382;28;20281;-75
2024/01/16 11:21:22;;;;;;;14.05;9.63;;;2.50;99.90;;;;;;5059231;28;20306;-75
2024/01/16 11:24:08;;;;;;;14.18;9.00;;;2.40;99.90;;;;;;5048086;28;20252;-74
2024/01/16 11:26:53;;;;;;;12.10;8.10;;;2.20;99.90;;;;;;5050623;28;20228;-74
2024/01/16 11:29:39;;;;;;;14.27;7.65;;;2.20;99.90;;;;;;5047745;28;20204;-75
2024/01/16 11:32:36;;;;;;;13.45;7.72;;;2.30;99.90;;;;;;5040365;28;20205;-75
2024/01/16 11:35:33;;;;;;;13.10;8.07;;;2.20;99.90;;;;;;5057669;28;20238;-74
2024/01/16 11:38:21;;;;;;;14.27;8.75;;;2.20;99.90;;;;;;5055254;28;20302;-75
2024/01/16 11:41:06;;;;;;;13.27;8.77;;;2.30;99.90;;;;;;5053130;28;20208;-75
2024/01/16 11:43:52;;;;;;;16.60;8.65;;;2.30;99.90;;;;;;5051425;28;20328;-75
2024/01/16 11:47:02;;;;;;;14.25;9.18;;;2.30;99.90;;;;;;5042870;28;20202;-73
2024/01/16 11:49:49;;;;;;;17.42;9.93;;;2.40;99.90;;;;;;5064262;28;20274;-74
2024/01/16 11:52:43;;;;;;;14.23;8.38;;;2.40;99.90;;;;;;5054154;28;20219;-75
2024/01/16 11:55:31;;;;;;;15.35;7.95;;;2.30;99.90;;;;;;5048604;28;20324;-75
2024/01/16 11:58:37;;;;;;;18.65;8.55;;;2.30;99.90;;;;;;5047155;28;20228;-74
2024/01/16 12:01:23;;;;;;;13.13;8.73;;;2.30;99.90;;;;;;5058082;28;20212;-75
2024/01/16 12:04:09;;;;;;;14.25;8.60;;;2.40;99.90;;;;;;5050529;28;20205;-75
2024/01/16 12:06:59;;;;;;;16.40;9.68;;;2.30;99.90;;;;;;5058561;28;20696;-74
2024/01/16 12:09:46;;;;;;;13.73;8.40;;;2.40;99.90;;;;;;5037384;28;20209;-74
2024/01/16 12:12:31;;;;;;;14.48;8.88;;;2.30;99.90;;;;;;5042165;28;20312;-75
2024/01/16 12:15:18;;;;;;;18.88;8.05;;;2.30;99.90;;;;;;5047448;28;20224;-74
2024/01/16 12:18:04;;;;;;;19.48;10.32;;;2.20;99.90;;;;;;5046570;28;20229;-75
2024/01/16 12:20:50;;;;;;;17.05;8.65;;;2.30;99.90;;;;;;5044975;28;20719;-75
2024/01/16 12:23:36;;;;;;;11.27;7.80;;;2.50;99.90;;;;;;5044783;28;20684;-74
2024/01/16 12:26:23;;;;;;;11.75;7.63;;;2.70;99.90;;;;;;5046609;28;20204;-75
2024/01/16 12:29:09;;;;;;;14.27;7.38;;;2.80;99.90;;;;;;5048500;28;20385;-74
2024/01/16 12:32:07;;;;;;;20.98;8.70;;;2.90;99.90;;;;;;5047973;28;20201;-75
2024/01/16 12:34:53;;;;;;;14.50;8.38;;;2.80;99.90;;;;;;5051319;28;20198;-74
2024/01/16 12:37:38;;;;;;;10.93;7.35;;;2.80;99.90;;;;;;5050062;28;20268;-74
2024/01/16 12:40:24;;;;;;;15.95;8.15;;;2.90;99.90;;;;;;5056600;28;20263;-74
2024/01/16 12:43:11;;;;;;;12.52;7.32;;;3.30;99.90;;;;;;5040700;28;20210;-74
2024/01/16 12:45:58;;;;;;;21.15;7.47;;;3.70;99.90;;;;;;5059047;28;20202;-75
2024/01/16 12:48:43;;;;;;;12.25;6.22;;;4.10;99.90;;;;;;5047904;28;20374;-74
2024/01/16 12:51:29;;;;;;;13.77;6.35;;;4.70;96.00;;;;;;5046069;28;20280;-74
2024/01/16 12:54:16;;;;;;;14.43;6.35;;;5.30;85.30;;;;;;5055325;28;20263;-74
2024/01/16 12:57:01;;;;;;;12.63;6.53;;;5.40;73.90;;;;;;5053222;28;20789;-75
2024/01/16 12:59:49;;;;;;;18.90;6.60;;;5.80;69.20;;;;;;5050309;28;20719;-75
2024/01/16 13:02:35;;;;;;;11.40;6.50;;;6.00;63.20;;;;;;5052717;28;20205;-76
2024/01/16 13:05:21;;;;;;;16.23;6.95;;;6.20;48.20;;;;;;5048177;28;20225;-75
2024/01/16 13:08:07;;;;;;;9.20;5.90;;;6.70;49.20;;;;;;5048149;28;20218;-75
2024/01/16 13:11:05;;;;;;;11.25;6.57;;;7.30;41.10;;;;;;5051359;28;20282;-75
2024/01/16 13:14:03;;;;;;;13.73;5.53;;;7.90;31.70;;;;;;5054405;28;20197;-75
2024/01/16 13:16:51;;;;;;;10.43;5.97;;;8.40;26.70;;;;;;5065552;28;20453;-75
2024/01/16 13:19:36;;;;;;;10.50;5.57;;;8.60;21.80;;;;;;5042974;28;20463;-74
2024/01/16 13:22:22;;;;;;;12.90;5.97;;;8.90;21.30;;;;;;5050574;28;20429;-75
2024/01/16 13:25:08;;;;;;;12.93;5.20;;;9.50;18.70;;;;;;5055405;28;20429;-75
2024/01/16 13:27:54;;;;;;;7.17;4.50;;;9.70;15.00;;;;;;5036314;28;20465;-75
2024/01/16 13:30:39;;;;;;;18.33;3.80;;;9.30;14.00;;;;;;5049505;28;20420;-75
2024/01/16 13:33:27;;;;;;;9.40;3.65;;;8.40;14.90;;;;;;5059152;28;20790;-75
2024/01/16 13:36:13;;;;;;;6.93;3.40;;;7.30;17.00;;;;;;5062523;28;20222;-75
2024/01/16 13:38:59;;;;;;;11.33;3.00;;;6.80;20.40;;;;;;5055722;28;20469;-75
2024/01/16 13:41:45;;;;;;;5.23;2.73;;;8.10;17.60;;;;;;5054215;28;20786;-75
2024/01/16 13:44:30;;;;;;;7.83;3.40;;;9.80;13.30;;;;;;5039457;28;20435;-76
2024/01/16 13:47:18;;;;;;;7.77;3.73;;;10.80;8.40;;;;;;5049004;28;20447;-76
2024/01/16 13:50:06;;;;;;;7.70;3.57;;;11.30;6.40;;;;;;5046504;28;20478;-76
2024/01/16 13:52:53;;;;;;;7.27;3.90;;;10.00;6.80;;;;;;5057971;28;20944;-75
2024/01/16 13:55:38;;;;;;;10.17;3.97;;;8.30;12.10;;;;;;5050802;28;20435;-75
2024/01/16 13:58:24;;;;;;;6.37;3.90;;;6.70;16.60;;;;;;5053047;28;20473;-76
2024/01/16 14:01:10;;;;;;;8.37;4.13;;;5.60;22.30;;;;;;5055571;28;20452;-75
2024/01/16 14:03:56;;;;;;;7.97;3.40;;;4.60;27.10;;;;;;5054811;28;20827;-75
2024/01/16 14:06:43;;;;;;;9.67;4.50;;;4.40;33.70;;;;;;5048805;28;20959;-74
2024/01/16 14:09:29;;;;;;;14.00;4.10;;;4.20;39.80;;;;;;5063156;28;20428;-75
2024/01/16 14:12:15;;;;;;;7.90;4.33;;;4.10;49.50;;;;;;5054467;28;20439;-75
2024/01/16 14:15:03;;;;;;;8.82;3.75;;;3.90;48.50;;;;;;5052879;28;20926;-76
2024/01/16 14:17:50;;;;;;;9.63;4.65;;;3.90;49.00;;;;;;5063079;28;20220;-75
2024/01/16 14:20:35;;;;;;;14.75;4.05;;;3.80;47.60;;;;;;5060608;28;20684;-75